Time;durP1;ratioP1;P1;durP2;ratioP2;P2;SDS_P1;SDS_P2;PMS_P1;PMS_P2;Temp;Humidity;BMP_temperature;BMP_pressure;BME280_temperature;BME280_humidity;BME280_pressure;Samples;Min_cycle;Max_cycle;Signal;HPM_P1;HPM_P2
2021/07/11 00:00:05;;;;;;;9.13;7.15;;;;;;;17.80;67.01;101286.34;5016343;28;20078;-76
2021/07/11 00:02:33;;;;;;;7.97;6.15;;;;;;;17.78;67.05;101290.63;5015832;28;20057;-76
2021/07/11 00:04:59;;;;;;;11.88;7.07;;;;;;;17.79;66.92;101281.97;5015688;28;20450;-76
2021/07/11 00:07:25;;;;;;;12.80;6.95;;;;;;;17.76;66.94;101287.09;5014313;28;20030;-76
2021/07/11 00:09:50;;;;;;;12.73;7.13;;;;;;;17.75;67.43;101284.44;5014547;28;20537;-76
2021/07/11 00:12:16;;;;;;;9.20;6.55;;;;;;;17.73;67.17;101287.00;5014440;28;20118;-76
2021/07/11 00:14:41;;;;;;;9.30;6.38;;;;;;;17.71;67.27;101283.47;5015336;28;20053;-76
2021/07/11 00:17:07;;;;;;;8.68;6.45;;;;;;;17.71;67.11;101278.25;4998351;28;20376;-76
2021/07/11 00:19:33;;;;;;;8.73;5.88;;;;;;;17.71;67.05;101283.47;5016063;28;20030;-76
2021/07/11 00:21:58;;;;;;;10.05;6.45;;;;;;;17.70;67.01;101281.69;5015341;28;20041;-76
2021/07/11 00:24:23;;;;;;;8.18;6.18;;;;;;;17.68;67.30;101272.97;5015222;28;20133;-76
2021/07/11 00:26:49;;;;;;;11.50;6.90;;;;;;;17.65;67.13;101276.34;5014871;28;20178;-76
2021/07/11 00:29:15;;;;;;;9.02;6.90;;;;;;;17.63;67.26;101284.97;5013860;28;20079;-76
2021/07/11 00:31:40;;;;;;;10.18;6.50;;;;;;;17.63;67.41;101284.97;5015345;28;20480;-76
2021/07/11 00:34:05;;;;;;;9.60;6.47;;;;;;;17.62;67.51;101289.28;5014361;28;20041;-76
2021/07/11 00:36:31;;;;;;;10.70;6.70;;;;;;;17.61;67.28;101297.06;5015195;28;20057;-76
2021/07/11 00:38:56;;;;;;;9.68;6.28;;;;;;;17.59;67.25;101298.72;5015290;28;20034;-76
2021/07/11 00:41:22;;;;;;;8.63;5.68;;;;;;;17.57;67.67;101289.97;5014009;28;20033;-76
2021/07/11 00:43:47;;;;;;;10.05;6.88;;;;;;;17.56;67.20;101293.44;5013670;28;20053;-76
2021/07/11 00:46:13;;;;;;;9.88;6.20;;;;;;;17.54;67.53;101297.72;5015008;28;20113;-76
2021/07/11 00:48:40;;;;;;;12.10;6.53;;;;;;;17.52;67.65;101295.94;5013972;28;20056;-76
2021/07/11 00:51:05;;;;;;;8.90;5.93;;;;;;;17.50;67.54;101295.00;5013550;28;20164;-76
2021/07/11 00:53:31;;;;;;;9.02;5.88;;;;;;;17.48;67.51;101291.44;4997636;28;20360;-76
2021/07/11 00:55:57;;;;;;;7.63;6.28;;;;;;;17.47;67.79;101289.66;5014682;28;20029;-76
2021/07/11 00:58:23;;;;;;;9.18;5.57;;;;;;;17.45;67.39;101291.34;4997265;28;20022;-76
2021/07/11 01:00:52;;;;;;;8.48;5.65;;;;;;;17.46;67.69;101300.91;5013823;28;20080;-76
2021/07/11 01:03:29;;;;;;;7.32;5.82;;;;;;;17.46;67.37;101303.53;4997336;28;20486;-76
2021/07/11 01:05:55;;;;;;;13.68;6.60;;;;;;;17.44;67.41;101300.00;5013520;28;20030;-76
2021/07/11 01:08:30;;;;;;;8.82;5.82;;;;;;;17.43;67.59;101297.34;5014077;28;20161;-76
2021/07/11 01:11:01;;;;;;;8.13;5.80;;;;;;;17.40;67.56;101292.91;5014934;28;20030;-76
2021/07/11 01:13:28;;;;;;;10.90;7.18;;;;;;;17.40;67.62;101300.72;4977590;28;20439;-76
2021/07/11 01:15:54;;;;;;;10.55;6.13;;;;;;;17.39;67.69;101306.78;4996047;28;20015;-76
2021/07/11 01:18:22;;;;;;;9.07;6.22;;;;;;;17.38;68.16;101310.22;4980770;28;20128;-76
2021/07/11 01:20:57;;;;;;;10.73;6.57;;;;;;;17.36;68.15;101312.78;4997102;28;20395;-76
2021/07/11 01:23:37;;;;;;;12.15;6.80;;;;;;;17.38;68.03;101310.22;4997079;28;20053;-77
2021/07/11 01:26:05;;;;;;;11.50;7.05;;;;;;;17.35;67.92;101304.91;5013828;28;20034;-75
2021/07/11 01:28:31;;;;;;;8.15;6.38;;;;;;;17.33;67.94;101306.56;4996780;28;20034;-75
2021/07/11 01:30:57;;;;;;;7.30;5.90;;;;;;;17.32;67.98;101304.81;4993264;28;20022;-75
2021/07/11 01:33:26;;;;;;;8.07;6.22;;;;;;;17.30;68.42;101306.47;4989556;28;20034;-75
2021/07/11 01:35:52;;;;;;;6.70;5.47;;;;;;;17.28;68.11;101308.16;4980399;28;20029;-75
2021/07/11 01:38:18;;;;;;;9.90;5.93;;;;;;;17.28;68.00;101310.75;4996451;28;20026;-76
2021/07/11 01:40:47;;;;;;;8.05;5.88;;;;;;;17.27;68.53;101306.38;4996865;28;20030;-76
2021/07/11 01:43:16;;;;;;;8.77;6.30;;;;;;;17.22;68.07;101304.53;4980129;28;20096;-75
2021/07/11 01:45:42;;;;;;;8.75;6.32;;;;;;;17.20;68.04;101306.19;5012554;28;20034;-77
2021/07/11 01:48:08;;;;;;;9.88;6.20;;;;;;;17.17;68.15;101305.22;4996240;28;20117;-76
2021/07/11 01:50:35;;;;;;;9.27;5.95;;;;;;;17.14;68.39;101306.00;5011825;28;20109;-76
2021/07/11 01:53:01;;;;;;;9.73;6.82;;;;;;;17.15;68.54;101320.78;4996314;28;20053;-76
2021/07/11 01:55:28;;;;;;;9.35;6.85;;;;;;;17.18;68.03;101313.06;5013241;28;20038;-76
2021/07/11 01:57:54;;;;;;;8.15;6.70;;;;;;;17.18;68.08;101309.59;5012517;28;20041;-76
2021/07/11 02:00:21;;;;;;;9.23;6.57;;;;;;;17.15;67.91;101310.34;5013096;28;20439;-78
2021/07/11 02:02:47;;;;;;;8.18;6.07;;;;;;;17.16;67.57;101314.72;4980188;28;20033;-76
2021/07/11 02:05:14;;;;;;;10.40;5.88;;;;;;;17.15;67.46;101315.56;5013528;28;20032;-77
2021/07/11 02:07:40;;;;;;;7.97;6.05;;;;;;;17.13;67.68;101309.44;4995727;28;20040;-74
2021/07/11 02:10:07;;;;;;;6.95;5.60;;;;;;;17.13;67.35;101313.75;4995934;28;20108;-74
2021/07/11 02:12:35;;;;;;;9.65;6.55;;;;;;;17.12;67.78;101309.41;4995585;28;20030;-73
2021/07/11 02:15:03;;;;;;;8.77;6.05;;;;;;;17.11;67.76;101316.28;4995950;28;20053;-73
2021/07/11 02:17:29;;;;;;;12.10;5.35;;;;;;;17.08;67.57;101311.00;4995774;28;20037;-74
2021/07/11 02:19:59;;;;;;;10.18;6.32;;;;;;;17.06;67.76;101316.16;4979550;28;20025;-73
2021/07/11 02:22:24;;;;;;;;;;;;;;;17.07;67.74;101314.44;4996237;28;20056;-73
2021/07/11 02:24:50;;;;;;;10.27;5.50;;;;;;;17.03;67.74;101317.75;4995294;28;19956;-73
2021/07/11 02:27:18;;;;;;;7.10;5.38;;;;;;;17.03;67.78;101325.56;4978408;28;20112;-73
2021/07/11 02:29:45;;;;;;;8.60;6.57;;;;;;;17.02;67.68;101326.41;4996042;28;20049;-74
2021/07/11 02:32:12;;;;;;;8.02;5.70;;;;;;;17.00;67.97;101328.06;5013233;28;20095;-73
2021/07/11 02:34:39;;;;;;;9.77;5.60;;;;;;;17.04;68.19;101320.44;4995278;28;20026;-73
2021/07/11 02:37:08;;;;;;;10.45;6.13;;;;;;;17.04;68.30;101319.53;4994929;28;20018;-79
2021/07/11 02:39:35;;;;;;;9.35;5.47;;;;;;;17.04;68.19;101324.75;4995308;28;20113;-80
2021/07/11 02:42:07;;;;;;;7.65;5.95;;;;;;;17.05;67.94;101321.31;5012964;28;20034;-78
2021/07/11 02:44:35;;;;;;;6.78;5.45;;;;;;;17.04;68.36;101319.53;4995081;28;20076;-77
2021/07/11 02:47:10;;;;;;;8.00;5.75;;;;;;;17.04;68.24;101319.53;4995397;28;20034;-77
2021/07/11 02:49:36;;;;;;;7.72;5.57;;;;;;;17.08;68.24;101321.41;4995404;28;20036;-78
2021/07/11 02:52:05;;;;;;;7.20;5.32;;;;;;;17.08;67.99;101317.09;5011534;28;20034;-78
2021/07/11 02:54:45;;;;;;;10.70;5.70;;;;;;;17.08;68.25;101311.00;5011149;28;20030;-78
2021/07/11 02:57:12;;;;;;;12.23;5.90;;;;;;;17.10;68.64;101311.06;4993869;28;20029;-77
2021/07/11 02:59:39;;;;;;;7.82;5.45;;;;;;;17.11;68.78;101311.09;4995173;28;20033;-78
2021/07/11 03:02:06;;;;;;;7.32;5.40;;;;;;;17.10;68.41;101304.13;4993824;28;20029;-78
2021/07/11 03:04:34;;;;;;;6.88;5.15;;;;;;;17.13;68.41;101304.22;4994178;28;20088;-78
2021/07/11 03:07:00;;;;;;;8.13;5.05;;;;;;;17.11;68.36;101300.69;4986624;28;20037;-78
2021/07/11 03:09:26;;;;;;;6.80;4.65;;;;;;;17.11;68.23;101305.88;5012119;28;20040;-78
2021/07/11 03:11:51;;;;;;;9.65;5.22;;;;;;;17.13;68.18;101299.00;5011376;28;20033;-77
2021/07/11 03:14:18;;;;;;;6.55;5.00;;;;;;;17.12;68.26;101299.84;4994105;28;20046;-78
2021/07/11 03:16:50;;;;;;;11.32;5.20;;;;;;;17.14;68.51;101306.00;5010972;28;20467;-78
2021/07/11 03:19:17;;;;;;;8.45;4.70;;;;;;;17.14;68.42;101303.38;4994950;28;20502;-78
2021/07/11 03:21:42;;;;;;;8.30;4.95;;;;;;;17.11;68.79;101305.88;5010911;28;20034;-77
2021/07/11 03:24:08;;;;;;;7.28;5.13;;;;;;;17.14;68.90;101311.19;4994720;28;20052;-76
2021/07/11 03:26:35;;;;;;;8.45;5.03;;;;;;;17.11;68.86;101311.09;5010555;28;20476;-77
2021/07/11 03:29:05;;;;;;;11.13;5.47;;;;;;;17.13;69.56;101312.03;5012510;28;20022;-77
2021/07/11 03:31:32;;;;;;;9.10;5.20;;;;;;;17.12;69.26;101307.66;5010866;28;20096;-77
2021/07/11 03:33:58;;;;;;;7.72;5.05;;;;;;;17.11;69.16;101316.28;4994205;28;20029;-77
2021/07/11 03:36:24;;;;;;;5.82;4.57;;;;;;;17.08;69.02;101306.69;5012003;28;20053;-78
2021/07/11 03:38:54;;;;;;;9.80;5.22;;;;;;;17.12;68.82;101299.84;4993592;28;20022;-78
2021/07/11 03:41:23;;;;;;;10.90;4.68;;;;;;;17.11;68.69;101295.47;5010141;28;20025;-79
2021/07/11 03:43:53;;;;;;;8.77;5.18;;;;;;;17.08;68.75;101300.59;4994628;28;20057;-78
2021/07/11 03:46:20;;;;;;;7.53;5.07;;;;;;;17.09;68.83;101297.16;5010357;28;20033;-79
2021/07/11 03:48:48;;;;;;;8.93;5.10;;;;;;;17.12;69.31;101297.25;4978141;28;20022;-78
2021/07/11 03:51:14;;;;;;;7.85;4.97;;;;;;;17.12;69.22;101297.25;5010722;28;20038;-79
2021/07/11 03:53:42;;;;;;;10.98;5.10;;;;;;;17.13;69.32;101296.41;4994184;28;20030;-78
2021/07/11 03:56:08;;;;;;;7.30;4.80;;;;;;;17.18;69.21;101297.44;4994505;28;20060;-77
2021/07/11 03:58:41;;;;;;;10.55;5.05;;;;;;;17.18;69.00;101297.44;4994313;28;20033;-77
2021/07/11 04:01:07;;;;;;;8.27;5.05;;;;;;;17.17;69.06;101295.69;4994130;28;20026;-78
2021/07/11 04:03:35;;;;;;;6.82;4.72;;;;;;;17.19;68.95;101298.34;5011771;28;20030;-78
2021/07/11 04:06:03;;;;;;;9.45;4.68;;;;;;;17.21;69.33;101301.88;5007390;28;20064;-77
2021/07/11 04:08:29;;;;;;;8.93;4.80;;;;;;;17.19;69.40;101299.22;4992690;28;20470;-79
2021/07/11 04:10:58;;;;;;;13.20;5.47;;;;;;;17.21;69.39;101301.88;4994001;28;20109;-78
2021/07/11 04:13:24;;;;;;;7.80;5.17;;;;;;;17.25;69.34;101300.25;5018779;28;20423;-78
2021/07/11 04:15:57;;;;;;;7.63;5.10;;;;;;;17.28;69.33;101308.16;5013646;28;20026;-78
2021/07/11 04:18:24;;;;;;;13.38;5.15;;;;;;;17.22;69.86;101307.13;5015144;28;20025;-79
2021/07/11 04:20:52;;;;;;;10.70;5.38;;;;;;;17.27;70.14;101311.59;5016372;28;20021;-78
2021/07/11 04:23:17;;;;;;;9.18;5.10;;;;;;;17.33;70.09;101314.38;5014975;28;20049;-78
2021/07/11 04:25:44;;;;;;;9.85;5.25;;;;;;;17.34;70.57;101308.34;5013519;28;20399;-79
2021/07/11 04:28:11;;;;;;;9.15;5.00;;;;;;;17.40;70.28;101313.75;5014082;28;20017;-79
2021/07/11 04:30:38;;;;;;;6.90;4.72;;;;;;;17.41;70.30;101323.31;5014859;28;20030;-79
2021/07/11 04:33:04;;;;;;;9.98;5.88;;;;;;;17.35;70.33;101316.22;4997841;28;20025;-79
2021/07/11 04:35:30;;;;;;;10.90;5.80;;;;;;;17.34;71.01;101318.75;5013626;28;20030;-81
2021/07/11 04:37:56;;;;;;;9.13;5.50;;;;;;;17.40;70.71;101313.75;5014559;28;20032;-78
2021/07/11 04:40:22;;;;;;;11.25;6.55;;;;;;;17.36;71.25;101317.09;4997098;28;20072;-78
2021/07/11 04:42:47;;;;;;;9.50;5.88;;;;;;;17.37;71.29;101318.84;4997545;28;20057;-78
2021/07/11 04:45:13;;;;;;;9.75;6.30;;;;;;;17.40;71.51;101313.75;5013658;28;20026;-79
2021/07/11 04:47:39;;;;;;;9.27;5.70;;;;;;;17.46;71.06;101319.16;5013875;28;20382;-79
2021/07/11 04:50:06;;;;;;;9.35;5.97;;;;;;;17.51;71.09;101316.72;5013824;28;20507;-78
2021/07/11 04:52:32;;;;;;;9.77;6.47;;;;;;;17.58;70.80;101317.78;4977833;28;20056;-78
2021/07/11 04:54:58;;;;;;;11.30;6.75;;;;;;;17.60;71.19;101321.34;5013135;28;20030;-79
2021/07/11 04:57:23;;;;;;;8.40;6.20;;;;;;;17.61;71.58;101323.09;4997302;28;20148;-80
2021/07/11 04:59:49;;;;;;;10.68;6.60;;;;;;;17.62;71.69;101324.88;5013081;28;20030;-80
2021/07/11 05:02:14;;;;;;;10.38;7.28;;;;;;;17.59;72.31;101327.38;5012884;28;20421;-78
2021/07/11 05:04:40;;;;;;;11.55;6.93;;;;;;;17.60;71.91;101335.22;5014480;28;20032;-79
2021/07/11 05:07:05;;;;;;;10.82;6.53;;;;;;;17.60;72.30;101336.97;4980358;28;20026;-79
2021/07/11 05:09:30;;;;;;;11.38;6.72;;;;;;;17.64;72.07;101333.63;5012419;28;20092;-79
2021/07/11 05:11:56;;;;;;;13.63;7.63;;;;;;;17.68;72.45;101340.69;4996546;28;20113;-81
2021/07/11 05:14:21;;;;;;;13.73;7.20;;;;;;;17.67;72.32;101336.31;5014231;28;20037;-81
2021/07/11 05:16:47;;;;;;;13.00;7.32;;;;;;;17.67;72.67;101338.91;4996519;28;20057;-81
2021/07/11 05:19:13;;;;;;;11.07;7.57;;;;;;;17.71;72.69;101335.56;5013115;28;20145;-79
2021/07/11 05:21:38;;;;;;;11.20;7.60;;;;;;;17.77;72.63;101335.75;5013313;28;20033;-80
2021/07/11 05:24:04;;;;;;;12.68;7.85;;;;;;;17.86;72.36;101344.69;5013091;28;20073;-81
2021/07/11 05:26:30;;;;;;;7.88;6.75;;;;;;;17.98;71.76;101338.94;5013143;28;20030;-81
2021/07/11 05:28:55;;;;;;;12.90;8.10;;;;;;;17.95;72.34;101350.19;5014238;28;20359;-81
2021/07/11 05:31:21;;;;;;;15.07;7.72;;;;;;;18.04;71.60;101334.84;5013070;28;20017;-80
2021/07/11 05:33:47;;;;;;;11.05;7.32;;;;;;;18.01;72.04;101334.75;4996756;28;20084;-80
2021/07/11 05:36:13;;;;;;;9.63;7.18;;;;;;;18.04;72.32;101334.84;5012730;28;20030;-80
2021/07/11 05:38:39;;;;;;;11.05;6.97;;;;;;;18.07;72.60;101340.16;4984166;28;20030;-81
2021/07/11 05:41:05;;;;;;;8.77;6.43;;;;;;;18.13;72.11;101333.34;5013754;28;20124;-80
2021/07/11 05:43:31;;;;;;;10.40;6.97;;;;;;;18.16;71.72;101341.25;5014558;28;20105;-80
2021/07/11 05:45:57;;;;;;;13.82;7.20;;;;;;;18.18;71.24;101342.19;4996635;28;20036;-80
2021/07/11 05:48:22;;;;;;;11.75;7.00;;;;;;;18.21;70.73;101337.06;4994014;28;20055;-79
2021/07/11 05:50:48;;;;;;;8.15;6.30;;;;;;;18.22;70.73;101344.03;5012771;28;20065;-81
2021/07/11 05:53:14;;;;;;;10.65;6.72;;;;;;;18.24;71.28;101347.56;5013761;28;20026;-81
2021/07/11 05:55:40;;;;;;;9.23;6.18;;;;;;;18.23;70.60;101345.81;5013682;28;20034;-81
2021/07/11 05:58:06;;;;;;;12.25;5.93;;;;;;;18.17;70.50;101340.41;5012297;28;20026;-81
2021/07/11 06:00:32;;;;;;;10.00;5.90;;;;;;;18.19;70.08;101349.16;5012263;28;20032;-80
2021/07/11 06:02:57;;;;;;;8.25;4.72;;;;;;;18.16;70.77;101344.75;5012293;28;20030;-79
2021/07/11 06:05:23;;;;;;;5.90;4.95;;;;;;;18.28;70.62;101349.44;5013786;28;20030;-81
2021/07/11 06:07:49;;;;;;;10.80;5.40;;;;;;;18.33;70.35;101353.06;5012547;28;20025;-79
2021/07/11 06:10:16;;;;;;;7.95;5.32;;;;;;;18.36;70.11;101352.28;5012135;28;20028;-81
2021/07/11 06:12:43;;;;;;;11.07;4.97;;;;;;;18.32;70.53;101350.41;4996078;28;20487;-81
2021/07/11 06:15:09;;;;;;;9.50;5.07;;;;;;;18.38;70.82;101345.38;4996165;28;20491;-79
2021/07/11 06:17:34;;;;;;;8.40;5.28;;;;;;;18.44;70.63;101355.97;5013374;28;20033;-79
2021/07/11 06:20:03;;;;;;;7.18;5.43;;;;;;;18.48;69.99;101355.22;5012183;28;20026;-81
2021/07/11 06:22:29;;;;;;;7.20;5.03;;;;;;;18.47;70.50;101360.38;5013559;28;20037;-81
2021/07/11 06:24:54;;;;;;;9.80;5.25;;;;;;;18.49;70.06;101353.47;5013114;28;20060;-80
2021/07/11 06:27:22;;;;;;;8.02;4.70;;;;;;;18.51;70.21;101357.00;5012231;28;20064;-80
2021/07/11 06:29:48;;;;;;;9.43;5.57;;;;;;;18.49;70.57;101363.91;5013654;28;20495;-81
2021/07/11 06:32:13;;;;;;;10.85;5.30;;;;;;;18.50;70.31;101355.25;5013109;28;20045;-81
2021/07/11 06:34:39;;;;;;;6.35;5.03;;;;;;;18.54;70.36;101351.88;5011542;28;20442;-81
2021/07/11 06:37:04;;;;;;;8.40;4.88;;;;;;;18.60;71.02;101352.09;5012158;28;20054;-81
2021/07/11 06:39:30;;;;;;;7.22;4.40;;;;;;;18.65;70.52;101350.47;4995396;28;20106;-81
2021/07/11 06:41:55;;;;;;;8.40;4.63;;;;;;;18.74;70.85;101341.13;5012908;28;20463;-82
2021/07/11 06:44:20;;;;;;;9.60;4.65;;;;;;;18.80;70.10;101344.78;5011867;28;20026;-81
2021/07/11 06:46:46;;;;;;;5.40;4.00;;;;;;;18.89;70.30;101349.38;5011806;28;20068;-82
2021/07/11 06:49:11;;;;;;;10.52;3.58;;;;;;;18.92;70.44;101349.44;5012832;28;20057;-80
2021/07/11 06:51:37;;;;;;;8.65;3.72;;;;;;;18.83;68.34;101355.28;4995363;28;20467;-83
2021/07/11 06:54:03;;;;;;;9.65;3.80;;;;;;;18.88;68.45;101352.81;4995129;28;20496;-83
2021/07/11 06:56:28;;;;;;;10.65;4.65;;;;;;;18.86;68.44;101354.50;5013092;28;20050;-85
2021/07/11 06:58:53;;;;;;;8.35;3.50;;;;;;;18.80;68.28;101359.56;5011608;28;20430;-81
2021/07/11 07:01:19;;;;;;;5.18;3.70;;;;;;;18.88;67.49;101360.66;5011210;28;20026;-80
2021/07/11 07:03:44;;;;;;;4.82;3.60;;;;;;;18.84;68.09;101356.19;4994615;28;20034;-80
2021/07/11 07:06:10;;;;;;;7.63;3.67;;;;;;;18.87;68.06;101356.28;5012825;28;20026;-80
2021/07/11 07:08:35;;;;;;;7.03;3.85;;;;;;;18.85;68.84;101355.34;5011732;28;20123;-81
2021/07/11 07:11:01;;;;;;;6.22;4.00;;;;;;;18.89;69.08;101357.19;5011474;28;20026;-80
2021/07/11 07:13:27;;;;;;;7.55;3.47;;;;;;;18.98;68.52;101349.63;4995077;28;20034;-81
2021/07/11 07:15:53;;;;;;;5.63;3.25;;;;;;;18.96;69.19;101351.28;5012714;28;20034;-81
2021/07/11 07:18:18;;;;;;;9.57;4.07;;;;;;;18.97;69.06;101362.63;5011704;28;20061;-81
2021/07/11 07:20:44;;;;;;;5.63;3.88;;;;;;;18.98;69.96;101360.06;5011405;28;20026;-81
2021/07/11 07:23:09;;;;;;;5.60;3.10;;;;;;;19.09;70.04;101362.09;5008135;28;20495;-81
2021/07/11 07:25:34;;;;;;;4.38;3.53;;;;;;;19.19;70.21;101352.75;4993448;28;20026;-81
2021/07/11 07:28:00;;;;;;;5.43;3.60;;;;;;;19.41;71.24;101355.06;4990065;28;20026;-82
2021/07/11 07:30:26;;;;;;;6.53;3.63;;;;;;;19.52;69.87;101352.69;4989352;28;20023;-82
2021/07/11 07:32:51;;;;;;;10.90;3.78;;;;;;;19.66;68.16;101349.53;4973315;28;20027;-81
2021/07/11 07:35:18;;;;;;;4.10;3.33;;;;;;;19.78;68.96;101352.41;4975868;28;20106;-82
2021/07/11 07:37:45;;;;;;;4.38;3.67;;;;;;;19.87;68.90;101350.84;4972584;28;20034;-83
2021/07/11 07:40:11;;;;;;;5.90;4.03;;;;;;;20.05;68.45;101348.66;4987527;28;20042;-87
2021/07/11 07:42:36;;;;;;;6.05;3.80;;;;;;;20.14;68.49;101343.63;4986954;28;20029;-85
2021/07/11 07:45:04;;;;;;;6.65;3.50;;;;;;;20.35;67.86;101350.16;4996623;28;20121;-84
2021/07/11 07:47:29;;;;;;;5.10;3.30;;;;;;;20.43;67.81;101343.34;4990213;28;20046;-82
2021/07/11 07:49:55;;;;;;;6.18;3.55;;;;;;;20.47;66.00;101344.28;4976036;28;20034;-81
2021/07/11 07:52:21;;;;;;;7.50;3.28;;;;;;;20.47;67.98;101356.47;5004366;28;20026;-78
2021/07/11 07:54:46;;;;;;;6.22;3.40;;;;;;;20.51;67.44;101347.84;4992393;28;20038;-78
2021/07/11 07:57:11;;;;;;;6.28;3.20;;;;;;;20.79;66.69;101348.41;4983709;28;20031;-78
2021/07/11 07:59:37;;;;;;;4.45;3.15;;;;;;;20.79;65.31;101348.41;5004608;28;20038;-78
2021/07/11 08:02:02;;;;;;;5.95;3.63;;;;;;;20.87;65.60;101357.28;4992285;28;20046;-76
2021/07/11 08:04:28;;;;;;;4.60;3.38;;;;;;;21.01;64.55;101355.78;4986557;28;20085;-79
2021/07/11 08:06:54;;;;;;;4.68;3.17;;;;;;;21.08;63.74;101355.88;4995076;28;20428;-77
2021/07/11 08:09:19;;;;;;;7.63;3.60;;;;;;;21.00;62.88;101348.78;4992196;28;20030;-78
2021/07/11 08:11:45;;;;;;;6.72;4.00;;;;;;;21.07;64.70;101349.75;4985456;28;20069;-80
2021/07/11 08:14:12;;;;;;;5.03;3.55;;;;;;;21.34;64.09;101342.34;4990456;28;20033;-76
2021/07/11 08:16:38;;;;;;;9.13;3.30;;;;;;;21.31;63.98;101349.28;4975460;28;20030;-78
2021/07/11 08:19:03;;;;;;;5.03;3.67;;;;;;;21.55;63.93;101347.03;5007080;28;20080;-77
2021/07/11 08:21:29;;;;;;;6.72;3.67;;;;;;;21.57;62.98;101346.19;5005126;28;20036;-77
2021/07/11 08:23:55;;;;;;;8.15;3.45;;;;;;;21.58;63.81;101347.94;4997788;28;20084;-78
2021/07/11 08:26:21;;;;;;;6.35;3.30;;;;;;;21.74;64.03;101343.84;4995878;28;20026;-79
2021/07/11 08:28:47;;;;;;;5.65;3.30;;;;;;;21.81;60.72;101350.06;5013775;28;20038;-79
2021/07/11 08:31:12;;;;;;;5.07;3.60;;;;;;;21.86;62.53;101358.88;4996797;28;20045;-80
2021/07/11 08:33:38;;;;;;;5.72;3.70;;;;;;;21.85;61.00;101357.13;4995319;28;20384;-78
2021/07/11 08:36:04;;;;;;;5.68;3.42;;;;;;;21.82;60.98;101357.09;5013454;28;20033;-80
2021/07/11 08:38:30;;;;;;;5.30;3.25;;;;;;;21.81;60.78;101350.06;5014036;28;20112;-79
2021/07/11 08:40:56;;;;;;;6.35;3.58;;;;;;;21.81;61.69;101355.31;5013376;28;20052;-79
2021/07/11 08:43:22;;;;;;;7.25;4.03;;;;;;;21.76;61.60;101354.38;5013395;28;20034;-78
2021/07/11 08:45:48;;;;;;;6.50;3.63;;;;;;;21.75;62.11;101357.84;5019265;28;20391;-79
2021/07/11 08:48:13;;;;;;;6.35;3.33;;;;;;;21.74;61.08;101363.97;5020944;28;20105;-78
2021/07/11 08:50:39;;;;;;;6.13;3.45;;;;;;;21.82;60.89;101357.09;5012924;28;20045;-79
2021/07/11 08:53:05;;;;;;;6.38;3.80;;;;;;;21.78;62.19;101350.03;5014106;28;20115;-81
2021/07/11 08:55:30;;;;;;;6.50;3.83;;;;;;;21.83;60.92;101353.59;5014363;28;20430;-79
2021/07/11 08:58:00;;;;;;;5.32;3.95;;;;;;;21.87;62.25;101360.66;5013260;28;20097;-81
2021/07/11 09:00:29;;;;;;;9.48;3.97;;;;;;;21.91;61.65;101356.31;5013703;28;20030;-82
2021/07/11 09:02:55;;;;;;;8.05;4.18;;;;;;;21.88;61.64;101346.69;4996637;28;20030;-83
2021/07/11 09:05:33;;;;;;;5.95;3.75;;;;;;;21.89;61.44;101343.19;4996698;28;20532;-81
2021/07/11 09:08:05;;;;;;;4.78;3.70;;;;;;;21.97;61.43;101345.03;5013716;28;20435;-82
2021/07/11 09:10:34;;;;;;;7.45;3.95;;;;;;;22.34;61.62;101350.72;4980132;28;20026;-80
2021/07/11 09:13:00;;;;;;;4.20;3.53;;;;;;;22.54;60.39;101348.38;4996131;28;20065;-80
2021/07/11 09:15:30;;;;;;;6.20;3.67;;;;;;;22.64;61.17;101349.34;5012884;28;20111;-81
2021/07/11 09:17:56;;;;;;;6.18;3.38;;;;;;;22.88;57.16;101353.09;4996023;28;20434;-82
2021/07/11 09:20:22;;;;;;;7.43;3.75;;;;;;;22.98;59.39;101339.19;5013448;28;20100;-81
2021/07/11 09:22:56;;;;;;;5.38;3.85;;;;;;;23.26;56.09;101344.69;4958753;28;1073547;-79
2021/07/11 09:25:21;;;;;;;5.05;3.75;;;;;;;23.42;56.41;101342.16;5014428;28;20501;-80
2021/07/11 09:27:47;;;;;;;6.45;3.88;;;;;;;23.61;56.65;101341.41;5011985;28;20061;-79
2021/07/11 09:30:15;;;;;;;5.15;3.58;;;;;;;23.75;56.63;101345.88;5011372;28;20030;-79
2021/07/11 09:32:41;;;;;;;5.32;4.25;;;;;;;23.90;56.21;101335.47;4990042;28;20025;-80
2021/07/11 09:35:13;;;;;;;5.28;4.18;;;;;;;24.27;55.94;101333.88;4994788;28;20033;-83
2021/07/11 09:37:41;;;;;;;5.95;3.97;;;;;;;24.54;51.69;101329.56;5019569;28;20044;-80
2021/07/11 09:40:08;;;;;;;6.28;3.70;;;;;;;24.72;54.13;101329.59;5012379;28;20025;-85
2021/07/11 09:42:38;;;;;;;6.25;3.53;;;;;;;24.90;54.27;101335.78;5012300;28;20088;-81
2021/07/11 09:45:11;;;;;;;9.63;4.13;;;;;;;25.16;53.06;101329.66;4991781;28;20028;-79
2021/07/11 09:47:36;;;;;;;4.30;3.53;;;;;;;25.40;49.71;101333.13;4993748;28;20089;-79
2021/07/11 09:50:09;;;;;;;5.55;4.07;;;;;;;25.67;49.72;101327.84;5011144;28;20026;-81
2021/07/11 09:52:38;;;;;;;6.95;4.32;;;;;;;26.06;49.57;101332.13;5009888;28;20382;-81
2021/07/11 09:55:19;;;;;;;14.02;6.88;;;;;;;26.41;48.60;101320.53;5016940;28;20079;-87
2021/07/11 09:58:08;;;;;;;5.18;4.07;;;;;;;26.75;48.77;101325.56;5011946;28;20364;-84
2021/07/11 10:00:37;;;;;;;4.13;3.55;;;;;;;26.86;47.11;101327.28;5010574;28;20026;-87
2021/07/11 10:03:10;;;;;;;6.78;3.47;;;;;;;26.96;44.48;101318.38;5016188;28;20171;-81
2021/07/11 10:05:36;;;;;;;5.55;3.80;;;;;;;27.13;45.49;101320.88;4980785;28;20383;-84
2021/07/11 10:08:02;;;;;;;9.18;3.55;;;;;;;27.31;46.24;101322.50;5014127;28;20026;-82
2021/07/11 10:10:31;;;;;;;5.43;4.07;;;;;;;27.45;45.35;101321.47;5026073;28;20033;-81
2021/07/11 10:12:57;;;;;;;;;;;;;;;27.41;44.40;101321.50;4998734;28;20150;-82
2021/07/11 10:15:26;;;;;;;8.25;3.75;;;;;;;27.38;45.14;101320.66;5019156;28;20572;-80
2021/07/11 10:18:03;;;;;;;8.63;4.53;;;;;;;27.44;45.71;101319.72;5005141;28;20032;-80
2021/07/11 10:20:40;;;;;;;5.68;4.13;;;;;;;27.35;45.20;101324.22;5001107;28;20511;-80
2021/07/11 10:23:07;;;;;;;6.93;4.10;;;;;;;27.34;42.08;101321.56;5016133;28;20552;-82
2021/07/11 10:25:35;;;;;;;5.53;4.03;;;;;;;26.97;42.94;101317.50;4980188;28;20038;-79
2021/07/11 10:28:09;;;;;;;5.70;4.05;;;;;;;26.97;45.56;101314.84;4994593;28;20034;-79
2021/07/11 10:30:37;;;;;;;4.22;3.47;;;;;;;26.92;47.03;101316.66;5015198;28;20372;-79
2021/07/11 10:33:10;;;;;;;4.50;3.42;;;;;;;27.01;45.97;101321.00;4998038;28;20434;-82
2021/07/11 10:35:50;;;;;;;5.28;3.88;;;;;;;26.56;45.54;101323.94;4996683;28;20050;-81
2021/07/11 10:38:26;;;;;;;5.60;4.00;;;;;;;26.73;46.31;101322.06;5009893;28;20025;-81
2021/07/11 10:40:52;;;;;;;5.82;4.38;;;;;;;26.56;44.24;101316.03;5013234;28;20025;-85
2021/07/11 10:43:17;;;;;;;8.10;4.22;;;;;;;26.72;47.19;101325.59;4996296;28;20116;-84
2021/07/11 10:45:47;;;;;;;3.92;3.22;;;;;;;26.79;47.52;101322.00;5010918;28;20065;-80
2021/07/11 10:48:13;;;;;;;5.15;3.92;;;;;;;26.77;47.31;101323.78;5023456;28;20075;-80
2021/07/11 10:50:41;;;;;;;5.50;3.50;;;;;;;26.77;49.17;101317.66;4993086;28;20025;-80
2021/07/11 10:53:16;;;;;;;3.97;3.33;;;;;;;26.88;49.04;101329.03;5003084;28;20045;-79
2021/07/11 10:55:43;;;;;;;8.88;3.58;;;;;;;26.91;47.81;101314.91;4994008;28;20500;-78
2021/07/11 10:58:17;;;;;;;5.25;3.67;;;;;;;27.12;47.59;101327.97;4993253;28;20033;-80
2021/07/11 11:00:43;;;;;;;5.10;3.22;;;;;;;27.01;45.58;101321.00;4996201;28;20041;-80
2021/07/11 11:03:23;;;;;;;7.93;3.95;;;;;;;26.60;46.07;101321.28;4994050;28;20109;-80
2021/07/11 11:05:50;;;;;;;6.43;3.92;;;;;;;26.59;48.39;101324.81;4987277;28;20376;-80
2021/07/11 11:08:21;;;;;;;4.60;3.60;;;;;;;26.85;49.97;101328.16;4992919;28;20034;-79
2021/07/11 11:10:48;;;;;;;6.15;3.47;;;;;;;27.15;49.80;101336.75;4994022;28;20022;-79
2021/07/11 11:13:17;;;;;;;6.20;3.80;;;;;;;27.27;47.84;101331.34;4985822;28;20033;-77
2021/07/11 11:15:57;;;;;;;6.57;3.92;;;;;;;27.12;48.98;101330.59;5011972;28;20030;-77
2021/07/11 11:18:40;;;;;;;4.13;3.40;;;;;;;27.03;48.88;101320.09;4995861;28;20117;-78
2021/07/11 11:21:17;;;;;;;8.02;3.10;;;;;;;26.99;49.30;101323.66;5026469;28;20464;-77
2021/07/11 11:23:53;;;;;;;6.15;3.60;;;;;;;26.78;50.11;101325.53;4996456;28;20042;-79